Dutch
Home     News     Corporate     Events & Tours     Flight ops     Crew centre      
My transavia virtual    Join us    Last logs    Who is flying    Forum    Software    Training    VRTS     
 

view flightdata
view flightplan
view OFP
view flightlog



flightdata:
pilot: Willem van Antwerpen
flight: TRA071
from: EHAM (Amsterdam Schiphol)
to: ELLX (Luxembourg)
date: 01-08-2019
departure: 14:56z
arrival: 15:47z
duration: 0:50
aircraft: B737 (PHHSA)
distance: 212 NM
touchdown: no landing



flightplan:
-(FPL-TRA071-IS
-B737/M-SDEHPRWXY/EHLSB1
-EHAM1504
-N0280F190 KUDA1P WOODY N872 NIK M624 GILOM L607 LNO LNO5K
-ELLX0001 EBBR
-PBN/B1D1LO1 DOF/190801 REG/PHHSA SEL/JQDH CODE/4841A5 OPR/TRA RVR/200 RMK/TCAS)



operational flightplan (OFP):
NO LOADSHEET AVAILABLE

WEATHER BRIEFING - GENERATED 01 AUG 2019 14:49 UTC
--------------------------------------------------------------------------------

EHAM ELLX EBBR

--------------------------------------------------------------------------------
ORIGIN: EHAM (SCHIPHOL)
--------------------------------------------------------------------------------
EHAM 011425Z 26015KT 230V300 9999 FEW016 SCT021 21/15 Q1015 NOSIG

EHAM 011109Z 0112/0218 26014KT 9999 SCT020 SCT040 PROB30
      TEMPO 0112/0115 7000 -SHRA BKN015 FEW025TCU
      BECMG 0118/0121 25007KT
      TEMPO 0201/0215 7000 -SHRA BKN012 FEW025TCU
      BECMG 0210/0213 33012KT PROB40
      TEMPO 0210/0215 34015G25KT 4500 SHRA SCT012 SCT020CB
      BECMG 0213/0216 01012KT


--------------------------------------------------------------------------------
DESTINATION: ELLX (LUXEMBOURG)
--------------------------------------------------------------------------------
ELLX 011420Z 29006KT 230V330 CAVOK 23/09 Q1018 NOSIG

ELLX 011100Z 0112/0218 24005KT CAVOK
      BECMG 0116/0119 36005KT
      TEMPO 0209/0218 FEW040TCU
      BECMG 0211/0214 31010KT


--------------------------------------------------------------------------------
ALTERNATE: EBBR (BRUSSELS)
--------------------------------------------------------------------------------
EBBR 011420Z 31006KT 280V020 9999 FEW042 23/14 Q1017 NOSIG

EBBR 011110Z 0112/0218 25008KT 9999 SCT030 =  EBCI 011110Z 0112/0218 27007KT 9999 SCT030


NOTAM BRIEFING - GENERATED 01 AUG 2019 14:50 UTC
--------------------------------------------------------------------------------

EHAM ELLX EBBR

--------------------------------------------------------------------------------
GLOBAL TRANSAVIA.COM VIRTUAL NOTAMS
--------------------------------------------------------------------------------
REF:NIL PLEASE CONTACT OPERATIONS IN CASE OF STRUCTURAL FLIGHTPLAN ERRORS ON FLIGHT-OPS@TRANSAVIA-VIRTUAL.COM
VALID:UFN

REF:NIL
PLEASE CHECK ACARS EVERY 10 MINUTES WHEN FLYING WITH SOUND OFF. AN NEW ACARS MESSAGE PRODUCE A SOUND SIGNAL UNTILL ITS READ. FLOWCONTROL DON'T RECEIVE MUCH REACTION ON OUTGOING ACARS MESSAGES ACCORDING FLIGHTSTATUS.
SOURCE: SPL/HV/OCC/
END VALID: UFN

REF:NIL
PLEASE CONTACT FLOWCONTROL IN CASE OF PROBLEMS WITH ROUTINGS
SOURCE: SPL/HV/OCC/
END VALID: UFN

REF:NIL
IN CASE OF ENGINE-OUT FLY V2 OR V2 20 MAX. UNTIL ABOVE MSA.
LEVEL-OFF AT AN ALTITUDE ROUNDED OFF TO THE FIRST 1000 FT OF THE HIGHEST MSA.
E.G: MSA EHAM; 1.7 AND 2.3 LEVEL-OFF 3000 FT. AFTER LANDING MAKE A REP TO OCC ON 131.975
SOURCE:SPL/HV/OCC
END VALID:UFN



flightlog:
Pilot : Willem van  Antwerpen
Flight: TRA071
From  : EHAM Schiphol
To    : ELLX Luxembourg

[FLIGHTLOG] 1.5.4
01-08-2019 14:49:13z, logging started
01-08-2019 14:56:32z, parking brake released
01-08-2019 14:59:04z, flaps set to 12%
01-08-2019 14:59:05z, flaps set to 25%
01-08-2019 14:59:07z, flaps set to 37%
01-08-2019 15:03:38z, take-off at 146 KIAS
01-08-2019 15:03:38z, pos report: 146 KIAS, 00 002 ft, heading 265, winds 247 @ 15 kts
01-08-2019 15:03:38z, flying OFFLINE
01-08-2019 15:03:38z, position: EHAM - Schiphol
01-08-2019 15:03:39z, retracted gear at 151 KIAS and 18 ft AGL
01-08-2019 15:04:10z, pos report: 167 KIAS, 02 091 ft, heading 266, winds 236 @ 15 kts
01-08-2019 15:04:22z, flaps set to 25%
01-08-2019 15:04:23z, flaps set to 12%
01-08-2019 15:04:31z, flaps set to 0%
01-08-2019 15:19:12z, pos report: 293 KIAS, 15 595 ft, heading 134, winds 269 @ 27 kts
01-08-2019 15:34:12z, pos report: 292 KIAS, 06 117 ft, heading 148, winds 290 @ 04 kts
01-08-2019 15:35:12z, flaps set to 12%
01-08-2019 15:35:46z, flaps set to 0%
01-08-2019 15:36:19z, below glideslope
01-08-2019 15:36:30z, flaps set to 12%
01-08-2019 15:36:37z, flaps set to 25%
01-08-2019 15:36:44z, lowered gear at 190 KIAS and 4093 ft AGL
01-08-2019 15:36:48z, flaps set to 37%
01-08-2019 15:36:52z, flaps set to 50%
01-08-2019 15:36:58z, flaps set to 62%
01-08-2019 15:37:32z, on glideslope
01-08-2019 15:40:05z, flaps set to 75%
01-08-2019 15:40:20z, intercepted localizer
01-08-2019 15:41:24z, flaps set to 87%
01-08-2019 15:42:13z, below glideslope
01-08-2019 15:43:35z, below glideslope
01-08-2019 15:44:31z, flaps set to 75%
01-08-2019 15:44:33z, flaps set to 62%
01-08-2019 15:44:37z, flaps set to 50%
01-08-2019 15:44:41z, flaps set to 37%
01-08-2019 15:44:43z, flaps set to 25%
01-08-2019 15:44:47z, flaps set to 12%
01-08-2019 15:44:51z, flaps set to 0%
01-08-2019 15:47:01z, parking brake set
01-08-2019 15:47:57z, logging ended

©2009-2019, transavia virtual. All rights reserved. This website is only meant for simulation purposes.
This website is not owned by transavia, nor is transavia responsible for the content of this website.